Time;durP1;ratioP1;P1;durP2;ratioP2;P2;SDS_P1;SDS_P2;PMS_P1;PMS_P2;Temp;Humidity;BMP_temperature;BMP_pressure;BME280_temperature;BME280_humidity;BME280_pressure;Samples;Min_cycle;Max_cycle;Signal;HPM_P1;HPM_P2
2022/03/28 00:02:13;;;;;;;19.05;13.20;;;;;;;9.71;49.91;99595.28;4973992;28;20026;-59
2022/03/28 00:04:39;;;;;;;20.17;13.55;;;;;;;9.86;49.92;99643.50;4986298;28;20101;-59
2022/03/28 00:07:04;;;;;;;18.77;13.55;;;;;;;9.84;50.39;99640.19;4982415;28;20031;-60
2022/03/28 00:09:30;;;;;;;16.77;12.65;;;;;;;9.86;50.35;99640.09;4969723;28;20030;-59
2022/03/28 00:11:55;;;;;;;17.63;13.20;;;;;;;9.59;50.13;99595.28;4986793;28;20362;-60
2022/03/28 00:14:21;;;;;;;18.33;12.85;;;;;;;9.80;50.26;99630.97;4982447;28;20092;-59
2022/03/28 00:16:46;;;;;;;19.42;12.77;;;;;;;9.69;49.53;99629.19;4981714;28;20030;-59
2022/03/28 00:19:12;;;;;;;18.67;13.18;;;;;;;9.73;48.34;99621.97;4979831;28;20033;-59
2022/03/28 00:21:37;;;;;;;20.60;13.90;;;;;;;9.74;48.46;99624.47;4980886;28;20030;-60
2022/03/28 00:24:03;;;;;;;22.17;14.63;;;;;;;9.67;48.62;99619.84;4994578;28;20042;-57
2022/03/28 00:26:30;;;;;;;21.40;14.63;;;;;;;9.65;48.12;99625.16;4987403;28;20532;-60
2022/03/28 00:28:56;;;;;;;19.83;14.05;;;;;;;9.63;47.80;99619.25;4987628;28;20046;-59
2022/03/28 00:31:21;;;;;;;20.30;13.80;;;;;;;9.58;48.25;99611.81;4980036;28;20092;-59
2022/03/28 00:33:47;;;;;;;18.52;13.80;;;;;;;9.57;47.70;99611.91;4988743;28;20042;-60
2022/03/28 00:36:12;;;;;;;19.02;13.05;;;;;;;9.56;48.33;99602.47;4980593;28;20038;-59
2022/03/28 00:38:38;;;;;;;17.27;12.55;;;;;;;9.35;49.01;99569.38;4973103;28;20026;-58
2022/03/28 00:41:04;;;;;;;17.75;12.65;;;;;;;9.57;49.16;99607.53;4993542;28;20449;-60
2022/03/28 00:43:30;;;;;;;17.02;12.10;;;;;;;9.49;50.52;99596.91;4988269;28;20611;-60
2022/03/28 00:45:55;;;;;;;15.90;11.65;;;;;;;9.54;50.66;99599.16;4987225;28;20030;-58
2022/03/28 00:48:21;;;;;;;18.05;12.30;;;;;;;9.53;50.30;99594.91;4994103;28;20096;-59
2022/03/28 00:50:46;;;;;;;17.05;11.93;;;;;;;9.58;51.22;99603.16;5009362;28;20388;-59
2022/03/28 00:53:13;;;;;;;18.17;12.50;;;;;;;9.53;51.61;99600.13;4991489;28;20088;-59
2022/03/28 00:55:39;;;;;;;16.85;11.82;;;;;;;9.52;51.25;99595.84;4993950;28;20488;-61
2022/03/28 00:58:05;;;;;;;15.30;11.85;;;;;;;9.53;51.23;99587.94;5021272;28;20571;-62
2022/03/28 01:00:31;;;;;;;16.55;11.52;;;;;;;9.45;50.98;99573.88;5004455;28;20088;-60
2022/03/28 01:02:57;;;;;;;16.95;11.85;;;;;;;9.60;52.13;99588.31;4981605;28;20088;-60
2022/03/28 01:05:24;;;;;;;15.85;11.93;;;;;;;9.44;51.41;99578.25;4989404;28;20650;-59
2022/03/28 01:07:50;;;;;;;17.33;12.57;;;;;;;9.40;52.04;99582.84;4970358;28;20070;-61
2022/03/28 01:10:15;;;;;;;16.08;11.85;;;;;;;9.46;50.43;99578.97;4979687;28;20253;-59
2022/03/28 01:12:42;;;;;;;15.80;11.85;;;;;;;9.51;51.52;99584.66;4963005;28;20026;-59
2022/03/28 01:15:10;;;;;;;17.23;11.85;;;;;;;9.43;44.56;99580.00;4984003;28;20030;-60
2022/03/28 01:20:23;;;;;;;17.70;11.32;;;;;;;9.45;42.57;99574.69;4996538;28;20045;-59
2022/03/28 01:22:48;;;;;;;15.40;11.20;;;;;;;9.40;41.90;99575.06;4995505;28;20029;-57
2022/03/28 01:25:22;;;;;;;16.00;11.50;;;;;;;9.32;42.25;99569.59;5010841;28;20085;-59
2022/03/28 01:27:49;;;;;;;17.52;12.40;;;;;;;9.30;42.97;99568.06;4975626;28;20048;-58
2022/03/28 01:30:14;;;;;;;16.70;10.82;;;;;;;9.29;42.36;99566.38;4986977;28;20129;-59
2022/03/28 01:32:40;;;;;;;16.70;11.13;;;;;;;9.20;41.99;99557.53;4992114;28;20357;-60
2022/03/28 01:35:05;;;;;;;16.17;11.27;;;;;;;9.28;41.42;99560.38;4974014;28;20030;-60
2022/03/28 01:37:31;;;;;;;15.13;11.82;;;;;;;9.32;41.20;99548.00;4964316;28;20042;-59
2022/03/28 01:39:57;;;;;;;17.77;11.77;;;;;;;9.03;42.44;99518.09;4976570;28;20034;-57
2022/03/28 01:42:22;;;;;;;18.70;12.15;;;;;;;9.26;43.47;99548.47;4976724;28;20038;-58
2022/03/28 01:44:51;;;;;;;16.75;11.52;;;;;;;9.16;43.17;99536.19;4998190;28;20034;-58
2022/03/28 01:47:17;;;;;;;16.77;11.77;;;;;;;9.25;43.19;99537.25;4969035;28;20029;-59
2022/03/28 01:49:43;;;;;;;18.67;12.55;;;;;;;9.34;42.45;99544.34;4984846;28;20708;-59
2022/03/28 01:52:08;;;;;;;17.52;11.27;;;;;;;9.25;43.78;99534.66;4982416;28;20076;-59
2022/03/28 01:54:34;;;;;;;16.10;11.15;;;;;;;9.20;43.74;99539.38;4968628;28;20827;-58
2022/03/28 01:56:59;;;;;;;15.00;11.00;;;;;;;9.30;42.77;99537.72;4986681;28;20428;-57
2022/03/28 01:59:24;;;;;;;15.02;11.50;;;;;;;9.40;43.42;99537.88;4989395;28;20041;-59
2022/03/28 02:01:51;;;;;;;16.45;11.60;;;;;;;9.41;43.78;99532.56;4977237;28;20457;-58
2022/03/28 02:04:16;;;;;;;17.33;12.15;;;;;;;9.46;42.83;99519.25;4970512;28;20598;-60
2022/03/28 02:06:42;;;;;;;18.63;11.70;;;;;;;9.51;42.44;99518.88;4983940;28;20092;-58
2022/03/28 02:09:08;;;;;;;17.10;11.95;;;;;;;9.57;40.96;99515.84;4984507;28;20045;-59
2022/03/28 02:11:34;;;;;;;17.70;11.90;;;;;;;9.56;40.49;99509.00;4975422;28;20034;-58
2022/03/28 02:14:00;;;;;;;17.00;11.50;;;;;;;9.60;38.97;99500.00;4971177;28;20459;-59
2022/03/28 02:16:25;;;;;;;17.13;11.43;;;;;;;9.64;40.26;99509.25;4990034;28;20027;-58
2022/03/28 02:18:51;;;;;;;16.20;11.30;;;;;;;9.62;41.55;99503.34;4986092;28;20065;-58
2022/03/28 02:21:16;;;;;;;17.13;11.85;;;;;;;9.68;39.87;99502.88;4973161;28;20126;-57
2022/03/28 02:23:42;;;;;;;18.27;11.73;;;;;;;9.63;39.50;99498.00;4980817;28;20038;-57
2022/03/28 02:26:07;;;;;;;16.98;11.82;;;;;;;9.68;38.31;99499.47;4985982;28;20042;-61
2022/03/28 02:28:33;;;;;;;19.02;12.07;;;;;;;9.77;36.91;99506.53;4970580;28;20515;-60
2022/03/28 02:30:59;;;;;;;18.45;12.25;;;;;;;9.77;36.58;99496.16;4992360;28;20096;-59
2022/03/28 02:33:24;;;;;;;18.45;12.05;;;;;;;9.74;37.99;99494.59;4989394;28;20809;-58
2022/03/28 02:35:51;;;;;;;17.40;11.48;;;;;;;9.80;36.73;99486.34;4982802;28;20038;-61
2022/03/28 02:38:16;;;;;;;17.25;11.85;;;;;;;9.72;34.60;99473.13;4969586;28;20023;-60
2022/03/28 02:40:42;;;;;;;16.08;11.90;;;;;;;9.82;35.62;99473.25;4968592;28;20053;-58
2022/03/28 02:43:07;;;;;;;16.45;11.95;;;;;;;9.82;36.87;99484.47;4982558;28;20030;-58
2022/03/28 02:45:35;;;;;;;17.45;11.63;;;;;;;9.71;36.71;99481.03;4972750;28;20378;-57
2022/03/28 02:48:02;;;;;;;17.58;11.35;;;;;;;9.73;35.87;99477.38;4982657;28;20814;-59
2022/03/28 02:50:28;;;;;;;17.13;11.73;;;;;;;9.75;36.01;99482.47;4990006;28;20116;-58
2022/03/28 02:52:54;;;;;;;18.65;11.90;;;;;;;9.71;36.08;99468.88;4983414;28;20029;-58
2022/03/28 02:55:20;;;;;;;17.00;11.13;;;;;;;9.63;36.77;99468.63;4988433;28;20033;-60
2022/03/28 02:57:45;;;;;;;20.17;12.43;;;;;;;9.65;36.26;99471.13;4981051;28;20037;-58
2022/03/28 03:00:11;;;;;;;19.45;11.40;;;;;;;9.79;35.13;99471.69;4965041;28;20177;-59
2022/03/28 03:02:38;;;;;;;16.23;10.98;;;;;;;9.88;34.31;99464.97;4963238;28;20027;-59
2022/03/28 03:05:08;;;;;;;20.92;13.15;;;;;;;9.94;33.81;99450.69;4984365;28;20030;-58
2022/03/28 03:07:33;;;;;;;17.40;11.35;;;;;;;10.04;33.59;99459.41;4984073;28;20038;-59
2022/03/28 03:09:59;;;;;;;16.30;11.27;;;;;;;10.08;33.02;99467.78;4964631;28;20030;-58
2022/03/28 03:12:24;;;;;;;17.55;11.85;;;;;;;10.09;32.27;99452.06;4979848;28;20037;-59
2022/03/28 03:14:50;;;;;;;17.77;11.38;;;;;;;10.14;32.73;99460.31;4984733;28;20034;-58
2022/03/28 03:17:16;;;;;;;17.75;11.73;;;;;;;9.99;34.31;99454.56;4980301;28;20072;-59
2022/03/28 03:19:41;;;;;;;15.85;11.10;;;;;;;9.74;39.17;99455.66;4965618;28;20058;-58
2022/03/28 03:22:07;;;;;;;16.40;11.95;;;;;;;9.36;41.51;99453.38;4985085;28;20042;-58
2022/03/28 03:24:34;;;;;;;15.70;10.95;;;;;;;9.08;43.84;99454.66;4981950;28;20121;-58
2022/03/28 03:27:00;;;;;;;16.60;11.85;;;;;;;8.87;46.81;99455.31;4981833;28;20022;-59
2022/03/28 03:29:26;;;;;;;15.52;11.38;;;;;;;8.78;45.87;99448.19;4981795;28;20042;-58
2022/03/28 03:31:52;;;;;;;16.88;11.98;;;;;;;8.74;45.47;99451.94;4967309;28;20041;-57
2022/03/28 03:34:18;;;;;;;16.33;11.38;;;;;;;8.81;46.23;99450.56;4982581;28;20034;-60
2022/03/28 03:36:43;;;;;;;16.60;11.05;;;;;;;8.71;44.40;99445.22;4962888;28;20376;-60
2022/03/28 03:39:08;;;;;;;17.33;11.15;;;;;;;8.75;45.95;99443.25;4985670;28;20072;-59
2022/03/28 03:41:34;;;;;;;18.38;11.68;;;;;;;8.87;42.48;99442.34;4982821;28;20080;-60
2022/03/28 03:43:59;;;;;;;15.95;10.23;;;;;;;9.01;40.04;99446.50;5005585;28;20131;-58
2022/03/28 03:46:25;;;;;;;18.00;11.75;;;;;;;9.26;37.65;99436.88;4991922;28;20058;-59
2022/03/28 03:48:50;;;;;;;17.98;11.82;;;;;;;9.22;39.90;99441.47;4977038;28;20144;-59
2022/03/28 03:51:16;;;;;;;15.35;10.30;;;;;;;9.30;40.27;99433.09;4991606;28;20185;-60
2022/03/28 03:53:41;;;;;;;16.35;11.57;;;;;;;9.45;36.37;99438.88;4992117;28;20090;-59
2022/03/28 03:56:07;;;;;;;17.42;11.52;;;;;;;9.48;38.07;99426.50;4994934;28;20026;-59
2022/03/28 03:58:32;;;;;;;15.57;11.90;;;;;;;9.14;44.54;99426.47;4987455;28;20035;-59
2022/03/28 04:00:58;;;;;;;16.40;10.85;;;;;;;9.04;43.67;99434.13;4983677;28;20380;-59
2022/03/28 04:03:23;;;;;;;23.60;11.68;;;;;;;9.06;40.08;99440.97;4988245;28;20048;-59
2022/03/28 04:05:49;;;;;;;21.85;12.73;;;;;;;9.36;37.21;99435.22;4991595;28;20034;-59
2022/03/28 04:08:14;;;;;;;15.95;10.45;;;;;;;9.54;38.76;99433.00;4988246;28;20038;-60
2022/03/28 04:10:42;;;;;;;17.48;11.35;;;;;;;9.47;40.24;99439.59;4986853;28;20517;-59
2022/03/28 04:13:09;;;;;;;15.85;11.15;;;;;;;9.34;41.51;99431.91;4990139;28;20104;-57
2022/03/28 04:15:35;;;;;;;16.05;11.45;;;;;;;8.98;45.34;99433.75;4990097;28;20081;-59
2022/03/28 04:18:00;;;;;;;18.73;11.80;;;;;;;8.92;46.10;99444.56;4987627;28;20037;-59
2022/03/28 04:20:27;;;;;;;14.73;10.98;;;;;;;8.68;46.88;99426.47;4969600;28;20045;-59
2022/03/28 04:22:53;;;;;;;16.65;11.68;;;;;;;8.66;48.12;99442.13;4985388;28;20038;-59
2022/03/28 04:25:19;;;;;;;14.90;10.73;;;;;;;8.70;50.08;99443.56;4995771;28;20036;-58
2022/03/28 04:27:45;;;;;;;18.50;11.57;;;;;;;8.60;48.74;99432.22;4992835;28;20028;-57
2022/03/28 04:30:11;;;;;;;17.67;11.65;;;;;;;8.54;49.69;99430.06;4973817;28;20440;-59
2022/03/28 04:32:37;;;;;;;18.50;12.05;;;;;;;8.48;48.55;99433.94;4973279;28;20121;-58
2022/03/28 04:35:04;;;;;;;18.17;11.75;;;;;;;8.53;46.42;99433.63;4975535;28;20109;-58
2022/03/28 04:37:34;;;;;;;15.25;10.43;;;;;;;8.48;45.91;99430.53;4991513;28;20587;-58
2022/03/28 04:40:00;;;;;;;18.15;11.35;;;;;;;8.51;46.21;99433.72;4986566;28;20030;-59
2022/03/28 04:42:26;;;;;;;16.95;11.52;;;;;;;8.43;46.86;99423.06;4988468;28;20493;-59
2022/03/28 04:44:51;;;;;;;17.80;11.73;;;;;;;8.49;46.97;99430.41;4988028;28;20025;-58
2022/03/28 04:47:17;;;;;;;18.05;11.18;;;;;;;8.52;47.51;99429.34;4980178;28;20380;-59
2022/03/28 04:49:42;;;;;;;18.75;11.63;;;;;;;8.46;47.64;99430.63;4990917;28;20484;-61
2022/03/28 04:52:08;;;;;;;18.88;12.20;;;;;;;8.40;47.14;99418.09;4993649;28;20403;-58
2022/03/28 04:54:36;;;;;;;15.77;11.05;;;;;;;8.41;46.99;99419.72;4967958;28;20475;-59
2022/03/28 04:57:04;;;;;;;16.63;11.25;;;;;;;8.56;47.36;99425.59;4981112;28;20038;-58
2022/03/28 04:59:31;;;;;;;17.63;11.45;;;;;;;8.47;48.78;99427.09;4988703;28;20022;-59
2022/03/28 05:01:56;;;;;;;16.88;11.57;;;;;;;8.38;48.42;99419.97;4967259;28;20064;-58
2022/03/28 05:04:22;;;;;;;19.00;12.07;;;;;;;8.31;48.70;99435.13;4979521;28;20045;-58
2022/03/28 05:06:47;;;;;;;19.02;11.75;;;;;;;8.06;48.97;99377.28;4991865;28;20038;-59
2022/03/28 05:09:13;;;;;;;18.55;12.07;;;;;;;8.20;49.60;99424.72;4988842;28;20030;-59
2022/03/28 05:11:38;;;;;;;20.33;12.60;;;;;;;8.20;49.62;99435.06;4982460;28;20108;-58
2022/03/28 05:14:04;;;;;;;17.83;11.95;;;;;;;7.94;49.88;99388.53;4989726;28;20029;-59
2022/03/28 05:16:33;;;;;;;15.80;11.52;;;;;;;7.96;49.09;99388.41;4979849;28;20041;-59
2022/03/28 05:18:58;;;;;;;17.75;11.80;;;;;;;8.31;48.27;99439.50;4983759;28;20586;-58
2022/03/28 05:21:24;;;;;;;19.02;11.88;;;;;;;8.33;48.22;99440.19;4989940;28;20049;-57
2022/03/28 05:23:49;;;;;;;19.85;12.20;;;;;;;8.27;48.03;99431.94;4968333;28;20030;-60
2022/03/28 05:26:15;;;;;;;19.10;12.00;;;;;;;8.31;47.83;99436.91;4943299;28;20049;-58
2022/03/28 05:28:40;;;;;;;21.17;11.93;;;;;;;8.05;47.43;99390.38;4965558;28;20423;-58
2022/03/28 05:31:06;;;;;;;17.17;12.05;;;;;;;8.04;47.05;99399.88;4982322;28;20030;-59
2022/03/28 05:33:31;;;;;;;19.63;12.52;;;;;;;8.40;44.67;99444.00;4987846;28;20481;-59
2022/03/28 05:35:57;;;;;;;17.38;11.50;;;;;;;8.50;45.32;99439.81;4985668;28;20128;-58
2022/03/28 05:38:22;;;;;;;19.33;11.95;;;;;;;8.55;45.31;99447.28;4985990;28;20149;-59
2022/03/28 05:40:48;;;;;;;17.42;12.18;;;;;;;8.55;45.97;99444.69;4978303;28;20058;-59
2022/03/28 05:43:14;;;;;;;20.23;11.52;;;;;;;8.44;48.03;99446.28;4985786;28;20057;-58
2022/03/28 05:45:39;;;;;;;17.08;12.30;;;;;;;8.52;48.45;99453.50;4966663;28;20491;-60
2022/03/28 05:48:05;;;;;;;21.23;12.23;;;;;;;8.33;50.34;99447.97;4969271;28;20172;-58
2022/03/28 05:50:30;;;;;;;17.05;11.70;;;;;;;8.11;50.55;99421.00;4989900;28;20735;-61
2022/03/28 05:52:56;;;;;;;17.23;11.70;;;;;;;8.37;49.58;99459.75;4989277;28;20097;-59
2022/03/28 05:55:22;;;;;;;20.40;12.43;;;;;;;8.38;49.85;99451.06;4969862;28;20030;-58
2022/03/28 05:57:47;;;;;;;17.58;11.82;;;;;;;8.32;50.07;99464.44;4994678;28;20560;-61
2022/03/28 06:00:14;;;;;;;18.40;11.57;;;;;;;8.10;49.82;99424.50;4982761;28;20500;-58
2022/03/28 06:02:41;;;;;;;17.33;11.40;;;;;;;8.44;48.62;99468.78;4985901;28;20085;-60
2022/03/28 06:05:07;;;;;;;21.00;12.13;;;;;;;8.40;49.50;99475.94;4967064;28;20022;-59
2022/03/28 06:07:32;;;;;;;18.63;11.77;;;;;;;8.11;50.12;99422.78;4989856;28;20078;-59
2022/03/28 06:09:58;;;;;;;21.00;11.93;;;;;;;8.53;47.77;99472.50;4985055;28;20037;-58
2022/03/28 06:12:23;;;;;;;15.45;10.30;;;;;;;8.92;41.22;99479.13;4981036;28;20089;-59
2022/03/28 06:14:49;;;;;;;17.95;12.07;;;;;;;8.94;43.97;99479.00;4978590;28;20772;-60
2022/03/28 06:17:25;;;;;;;18.50;12.32;;;;;;;8.74;43.86;99441.56;4984272;28;20026;-59
2022/03/28 06:19:52;;;;;;;17.85;12.25;;;;;;;8.92;41.33;99473.94;4988167;28;20100;-60
2022/03/28 06:22:17;;;;;;;20.92;13.10;;;;;;;8.88;46.11;99475.09;4985163;28;20034;-59
2022/03/28 06:24:43;;;;;;;20.83;11.75;;;;;;;8.57;47.47;99460.97;4989712;28;20044;-59
2022/03/28 06:27:09;;;;;;;17.80;11.75;;;;;;;8.20;48.42;99425.53;4987496;28;20026;-59
2022/03/28 06:29:34;;;;;;;18.23;12.82;;;;;;;8.46;48.03;99479.88;4984052;28;20034;-60
2022/03/28 06:32:00;;;;;;;17.90;11.40;;;;;;;8.20;47.68;99441.06;4984691;28;20709;-60
2022/03/28 06:34:25;;;;;;;20.98;12.30;;;;;;;8.46;47.36;99482.47;4983152;28;20156;-63
2022/03/28 06:36:50;;;;;;;18.33;11.90;;;;;;;8.55;46.82;99475.81;4982856;28;20041;-60
2022/03/28 06:39:16;;;;;;;18.67;12.88;;;;;;;8.69;44.62;99467.00;4989591;28;20386;-58
2022/03/28 06:41:42;;;;;;;17.45;11.80;;;;;;;8.71;45.48;99476.34;4991059;28;20030;-58
2022/03/28 06:44:11;;;;;;;25.27;12.15;;;;;;;8.78;45.26;99479.28;4983327;28;20049;-59
2022/03/28 06:46:40;;;;;;;29.38;13.35;;;;;;;8.80;45.66;99482.63;4985923;28;20026;-59
2022/03/28 06:49:06;;;;;;;21.60;12.90;;;;;;;8.80;45.25;99480.03;4970000;28;20535;-59
2022/03/28 06:51:33;;;;;;;19.08;12.52;;;;;;;8.81;45.18;99477.31;4969321;28;20062;-59
2022/03/28 06:53:58;;;;;;;20.30;12.65;;;;;;;8.85;44.52;99473.56;4988972;28;20065;-59
2022/03/28 06:56:24;;;;;;;19.80;12.20;;;;;;;8.87;46.46;99483.00;4988132;28;20120;-62
2022/03/28 06:58:49;;;;;;;21.48;13.35;;;;;;;8.81;48.13;99477.31;4985155;28;20053;-61
2022/03/28 07:01:15;;;;;;;21.65;13.18;;;;;;;8.54;48.74;99427.47;4988658;28;20038;-57
2022/03/28 07:03:41;;;;;;;20.23;13.48;;;;;;;8.76;49.99;99486.38;4986537;28;20860;-59
2022/03/28 07:06:07;;;;;;;18.75;12.77;;;;;;;8.72;50.22;99477.16;4985735;28;20105;-58
2022/03/28 07:08:33;;;;;;;18.30;12.70;;;;;;;8.79;50.35;99479.19;4985283;28;20117;-59
2022/03/28 07:10:59;;;;;;;18.75;13.10;;;;;;;8.86;49.96;99474.38;4976202;28;20335;-59
2022/03/28 07:13:24;;;;;;;21.10;13.05;;;;;;;8.61;51.27;99442.47;4986690;28;20116;-59
2022/03/28 07:15:50;;;;;;;21.17;13.18;;;;;;;8.73;50.84;99445.13;4988761;28;20038;-60
2022/03/28 07:18:15;;;;;;;19.80;12.65;;;;;;;8.87;51.58;99476.06;4993247;28;20474;-58
2022/03/28 07:20:43;;;;;;;20.48;13.38;;;;;;;8.83;52.23;99467.69;4996159;28;20034;-58
2022/03/28 07:23:09;;;;;;;20.88;13.10;;;;;;;9.03;52.52;99475.72;4990591;28;20022;-59
2022/03/28 07:25:36;;;;;;;21.15;13.93;;;;;;;9.04;52.68;99477.41;4984630;28;20057;-60
2022/03/28 07:28:09;;;;;;;22.77;12.93;;;;;;;9.03;53.35;99461.00;4988450;28;20041;-59
2022/03/28 07:30:35;;;;;;;24.42;13.70;;;;;;;9.16;53.65;99473.06;4987973;28;20070;-58
2022/03/28 07:33:02;;;;;;;20.52;13.82;;;;;;;9.18;52.44;99472.00;4969521;28;20030;-58
2022/03/28 07:35:32;;;;;;;23.75;13.75;;;;;;;9.29;51.30;99491.13;4969921;28;20579;-58
2022/03/28 07:37:58;;;;;;;18.70;12.77;;;;;;;9.31;50.58;99484.91;4974386;28;20022;-58
2022/03/28 07:40:23;;;;;;;24.65;13.43;;;;;;;9.27;50.77;99486.03;4987971;28;20031;-59
2022/03/28 07:42:49;;;;;;;33.05;14.30;;;;;;;9.27;50.63;99491.25;4991695;28;20053;-60
2022/03/28 07:45:14;;;;;;;22.85;14.10;;;;;;;9.38;49.74;99487.84;4991392;28;20038;-59
2022/03/28 07:47:41;;;;;;;23.17;13.73;;;;;;;9.43;49.14;99483.94;4993047;28;20061;-60
2022/03/28 07:50:07;;;;;;;20.10;13.23;;;;;;;9.42;49.43;99484.09;4992880;28;20744;-59
2022/03/28 07:52:34;;;;;;;21.08;13.68;;;;;;;9.41;49.10;99485.84;4988850;28;20026;-59
2022/03/28 07:55:00;;;;;;;24.00;14.23;;;;;;;9.45;48.83;99485.63;4978501;28;20060;-59
2022/03/28 07:57:26;;;;;;;21.13;14.55;;;;;;;9.48;48.45;99481.03;4981384;28;20101;-59
2022/03/28 07:59:52;;;;;;;23.20;13.63;;;;;;;9.52;48.22;99479.03;4979771;28;20049;-61
2022/03/28 08:02:17;;;;;;;21.92;15.00;;;;;;;9.40;47.50;99471.22;4980658;28;20034;-60
2022/03/28 08:04:43;;;;;;;23.67;14.88;;;;;;;9.55;48.40;99482.22;4964019;28;20040;-59
2022/03/28 08:07:10;;;;;;;22.65;14.10;;;;;;;9.53;48.31;99462.50;4990248;28;20034;-59
2022/03/28 08:09:36;;;;;;;22.52;14.20;;;;;;;9.60;48.36;99474.91;4975282;28;20113;-59
2022/03/28 08:12:02;;;;;;;22.80;13.93;;;;;;;9.54;51.01;99466.75;4988557;28;20508;-61
2022/03/28 08:14:28;;;;;;;23.65;14.27;;;;;;;9.56;49.10;99467.44;4981581;28;20049;-58
2022/03/28 08:16:55;;;;;;;19.02;13.60;;;;;;;9.52;51.93;99460.84;4988101;28;20060;-60
2022/03/28 08:19:21;;;;;;;22.15;14.63;;;;;;;9.48;49.13;99462.03;4987459;28;20140;-59
2022/03/28 08:21:46;;;;;;;24.83;14.52;;;;;;;9.48;49.45;99469.81;4984096;28;20437;-59
2022/03/28 08:24:12;;;;;;;25.25;14.68;;;;;;;9.55;47.88;99463.22;4969081;28;20104;-57
2022/03/28 08:26:38;;;;;;;22.60;13.43;;;;;;;9.65;49.31;99458.13;4980898;28;20074;-58
2022/03/28 08:29:05;;;;;;;32.90;13.90;;;;;;;9.65;49.17;99456.34;4976292;28;20026;-57
2022/03/28 08:31:31;;;;;;;34.10;14.40;;;;;;;9.72;48.42;99457.53;4977382;28;20030;-59
2022/03/28 08:33:57;;;;;;;33.50;14.68;;;;;;;9.76;47.18;99455.53;4984622;28;20396;-57
2022/03/28 08:36:23;;;;;;;22.35;13.48;;;;;;;9.75;51.53;99449.53;4981957;28;20684;-59
2022/03/28 08:38:48;;;;;;;21.23;14.23;;;;;;;9.77;52.29;99450.22;4968379;28;20034;-59
2022/03/28 08:41:14;;;;;;;21.30;14.15;;;;;;;9.77;49.13;99452.00;4977266;28;20042;-59
2022/03/28 08:43:41;;;;;;;23.25;13.48;;;;;;;9.55;46.77;99419.91;4983398;28;20034;-59
2022/03/28 08:46:08;;;;;;;29.33;15.45;;;;;;;9.70;46.37;99459.44;4986643;28;20124;-58
2022/03/28 08:48:35;;;;;;;21.98;13.75;;;;;;;9.73;48.07;99451.41;4989112;28;20030;-59
2022/03/28 08:51:01;;;;;;;29.02;14.45;;;;;;;9.82;47.88;99450.69;4988334;28;20031;-59
2022/03/28 08:53:27;;;;;;;26.23;15.50;;;;;;;9.84;47.92;99445.38;4987436;28;20047;-59
2022/03/28 08:55:52;;;;;;;29.05;14.40;;;;;;;9.82;48.13;99435.13;4981020;28;20088;-59
2022/03/28 08:58:18;;;;;;;24.20;14.68;;;;;;;9.87;48.72;99434.72;4982216;28;20030;-59
2022/03/28 09:00:43;;;;;;;25.85;14.60;;;;;;;9.93;49.40;99436.88;4996995;28;20029;-58
2022/03/28 09:03:09;;;;;;;26.05;15.00;;;;;;;9.92;49.63;99427.41;4977951;28;20684;-59
2022/03/28 09:05:36;;;;;;;23.83;15.32;;;;;;;10.08;48.14;99426.22;4969338;28;20455;-59
2022/03/28 09:08:03;;;;;;;22.38;14.48;;;;;;;9.97;42.86;99382.91;4995056;28;20030;-58
2022/03/28 09:10:32;;;;;;;24.77;14.52;;;;;;;10.35;41.89;99423.22;4983747;28;20030;-58
2022/03/28 09:12:58;;;;;;;22.45;13.93;;;;;;;10.24;39.91;99389.41;4985273;28;20398;-58
2022/03/28 09:15:24;;;;;;;24.58;15.30;;;;;;;10.89;38.71;99427.47;4983808;28;20061;-59
2022/03/28 09:17:57;;;;;;;28.27;14.85;;;;;;;11.05;37.75;99427.03;4984229;28;20109;-59
2022/03/28 09:20:23;;;;;;;21.23;14.25;;;;;;;10.83;37.64;99381.16;4991448;28;20041;-57
2022/03/28 09:22:49;;;;;;;21.15;13.95;;;;;;;11.27;38.11;99425.22;4983915;28;20744;-58
2022/03/28 09:25:17;;;;;;;20.48;13.57;;;;;;;11.29;35.66;99411.13;4981248;28;20045;-61
2022/03/28 09:27:44;;;;;;;25.63;14.18;;;;;;;11.34;37.17;99408.97;4987222;28;20516;-60
2022/03/28 09:30:18;;;;;;;22.73;16.13;;;;;;;11.46;36.02;99406.25;4989374;28;20031;-59
2022/03/28 09:32:52;;;;;;;23.67;14.75;;;;;;;11.65;35.89;99401.13;4964094;28;20038;-58
2022/03/28 09:35:23;;;;;;;20.75;13.57;;;;;;;11.85;34.97;99399.41;4983497;28;20452;-60
2022/03/28 09:38:05;;;;;;;19.60;13.50;;;;;;;12.05;33.79;99399.47;4984343;28;20791;-58
2022/03/28 09:40:39;;;;;;;20.17;12.98;;;;;;;12.24;34.28;99393.47;4984475;28;20065;-57
2022/03/28 09:43:24;;;;;;;22.38;13.50;;;;;;;12.23;33.29;99391.78;4985359;28;20397;-59
2022/03/28 09:45:51;;;;;;;18.48;12.90;;;;;;;12.23;33.76;99368.34;4984246;28;20041;-59
2022/03/28 09:48:19;;;;;;;19.40;13.68;;;;;;;12.48;32.86;99380.84;4965765;28;20409;-60
2022/03/28 09:51:05;;;;;;;19.35;13.68;;;;;;;12.77;31.39;99382.59;4987593;28;20068;-59
2022/03/28 09:53:37;;;;;;;20.33;14.00;;;;;;;12.72;32.57;99355.25;4996098;28;20026;-59
2022/03/28 09:56:07;;;;;;;21.17;13.73;;;;;;;13.07;29.99;99365.91;4958803;28;20037;-60
2022/03/28 09:58:35;;;;;;;19.17;12.68;;;;;;;13.33;29.41;99362.69;4979661;28;20053;-60
2022/03/28 10:01:05;;;;;;;19.15;12.68;;;;;;;13.54;28.37;99359.00;5001191;28;20037;-59
2022/03/28 10:03:33;;;;;;;21.13;13.57;;;;;;;13.64;28.52;99352.75;4985893;28;20030;-60
2022/03/28 10:06:03;;;;;;;19.08;13.60;;;;;;;13.52;28.76;99319.94;4988023;28;20058;-59
2022/03/28 10:08:30;;;;;;;18.30;13.32;;;;;;;13.89;28.39;99354.81;4979713;28;20042;-60
2022/03/28 10:10:57;;;;;;;21.85;13.98;;;;;;;13.99;28.46;99359.00;4983913;28;20030;-59
2022/03/28 10:13:23;;;;;;;17.67;13.38;;;;;;;14.16;28.88;99338.25;4985887;28;20088;-59
2022/03/28 10:15:49;;;;;;;21.80;13.80;;;;;;;14.32;29.60;99334.94;4982514;28;20038;-58
2022/03/28 10:18:15;;;;;;;24.48;14.27;;;;;;;13.97;30.04;99294.78;4982750;28;20164;-61
2022/03/28 10:20:46;;;;;;;19.00;13.35;;;;;;;14.24;29.94;99314.78;4984947;28;20042;-60
2022/03/28 10:23:15;;;;;;;21.23;14.88;;;;;;;14.64;28.99;99323.94;4971439;28;20061;-60
2022/03/28 10:25:40;;;;;;;23.77;16.57;;;;;;;14.80;26.81;99313.56;4974182;28;20030;-59
2022/03/28 10:28:07;;;;;;;23.40;15.20;;;;;;;14.82;26.14;99310.78;4967870;28;20053;-60
2022/03/28 10:30:33;;;;;;;25.40;16.05;;;;;;;15.04;26.37;99298.13;4962856;28;20065;-59
2022/03/28 10:33:16;;;;;;;23.35;15.27;;;;;;;15.12;26.95;99295.56;4985357;28;20069;-60
2022/03/28 10:36:05;;;;;;;21.17;14.93;;;;;;;15.30;26.38;99290.25;4970454;28;20236;-59
2022/03/28 10:38:31;;;;;;;21.40;14.95;;;;;;;15.52;24.39;99281.78;4995348;28;20037;-59
2022/03/28 10:41:01;;;;;;;23.60;15.55;;;;;;;15.60;25.10;99283.59;4967763;28;20152;-60
2022/03/28 10:43:29;;;;;;;22.60;15.82;;;;;;;15.67;25.62;99286.41;4987135;28;20034;-58
2022/03/28 10:45:57;;;;;;;23.50;14.68;;;;;;;15.68;25.65;99269.66;4976579;28;20026;-60
2022/03/28 10:48:37;;;;;;;21.05;15.27;;;;;;;15.99;22.80;99282.19;4979437;28;20695;-61
2022/03/28 10:51:17;;;;;;;20.98;14.15;;;;;;;16.22;23.51;99275.31;5004059;28;20433;-59
2022/03/28 10:53:43;;;;;;;;;;;;;;;16.23;23.65;99276.16;4970813;28;20072;-58
2022/03/28 10:56:13;;;;;;;19.10;12.80;;;;;;;16.10;23.38;99255.66;5010063;28;19921;-58
2022/03/28 10:58:42;;;;;;;22.40;14.45;;;;;;;16.28;23.00;99258.94;4989445;28;20038;-59
2022/03/28 11:01:07;;;;;;;20.38;14.05;;;;;;;16.33;23.05;99253.97;5001745;28;20746;-59
2022/03/28 11:03:34;;;;;;;20.27;14.38;;;;;;;16.40;22.16;99248.09;4988551;28;20101;-60
2022/03/28 11:06:01;;;;;;;22.98;15.57;;;;;;;16.66;21.35;99246.03;4983781;28;20034;-59
2022/03/28 11:08:30;;;;;;;21.70;15.88;;;;;;;16.97;20.88;99229.56;4981169;28;20083;-59
2022/03/28 11:11:16;;;;;;;21.80;15.95;;;;;;;17.06;21.49;99219.84;5004967;28;20034;-59
2022/03/28 11:13:42;;;;;;;24.65;16.98;;;;;;;17.35;22.22;99221.00;4985097;28;20034;-58
2022/03/28 11:16:20;;;;;;;22.75;16.48;;;;;;;17.15;23.02;99225.88;4989205;28;20052;-60
2022/03/28 11:19:18;;;;;;;26.23;16.55;;;;;;;16.92;24.01;99221.41;4993203;28;20096;-60
2022/03/28 11:22:04;;;;;;;21.92;16.25;;;;;;;16.87;23.43;99218.44;4966693;28;20043;-61
2022/03/28 11:24:54;;;;;;;28.70;16.77;;;;;;;16.77;23.80;99217.78;4988276;28;20018;-60
2022/03/28 11:27:21;;;;;;;21.02;15.35;;;;;;;16.95;23.01;99207.91;4991832;28;20042;-60